Time;durP1;ratioP1;P1;durP2;ratioP2;P2;SDS_P1;SDS_P2;PMS_P1;PMS_P2;Temp;Humidity;BMP_temperature;BMP_pressure;BME280_temperature;BME280_humidity;BME280_pressure;Samples;Min_cycle;Max_cycle;Signal;HPM_P1;HPM_P2
2022/09/04 00:01:53;;;;;;;14.00;5.93;;;;;;;15.56;83.96;99830.41;6165608;23;20329;-92
2022/09/04 00:04:30;;;;;;;8.63;6.57;;;;;;;15.43;84.32;99821.06;6166411;23;20001;-91
2022/09/04 00:07:07;;;;;;;10.73;6.43;;;;;;;15.39;84.47;99811.91;6190517;23;20079;-91
2022/09/04 00:09:33;;;;;;;10.27;6.03;;;;;;;15.50;84.22;99824.25;6142056;23;20004;-91
2022/09/04 00:12:03;;;;;;;11.48;6.88;;;;;;;15.37;84.02;99805.94;6190516;23;20025;-91
2022/09/04 00:14:39;;;;;;;13.70;6.40;;;;;;;15.54;84.25;99838.03;6165858;23;19996;-92
2022/09/04 00:17:09;;;;;;;17.75;6.97;;;;;;;15.50;83.65;99823.44;6166229;23;20005;-91
2022/09/04 00:19:42;;;;;;;8.98;5.95;;;;;;;15.65;83.36;99833.31;6165839;23;20005;-92
2022/09/04 00:22:31;;;;;;;11.05;6.30;;;;;;;15.50;83.77;99813.41;6164515;23;20092;-92
2022/09/04 00:25:02;;;;;;;10.93;6.35;;;;;;;15.64;83.96;99839.84;6142448;23;20004;-91
2022/09/04 00:27:30;;;;;;;10.02;5.57;;;;;;;15.54;83.72;99833.44;6216140;23;20039;-91
2022/09/04 00:29:59;;;;;;;12.07;5.60;;;;;;;15.55;83.60;99840.47;6165435;23;20004;-91
2022/09/04 00:32:57;;;;;;;7.30;5.45;;;;;;;15.43;83.64;99831.13;6191141;23;19997;-92
2022/09/04 00:35:43;;;;;;;8.65;5.38;;;;;;;15.41;84.10;99850.41;6170145;23;19996;-91
2022/09/04 00:38:16;;;;;;;9.55;5.80;;;;;;;15.26;84.27;99834.31;6190788;23;20004;-92
2022/09/04 00:41:08;;;;;;;10.95;5.88;;;;;;;15.25;84.35;99844.34;6165987;23;20351;-91
2022/09/04 00:44:02;;;;;;;8.85;5.53;;;;;;;15.28;84.80;99861.97;6190614;23;20497;-91
2022/09/04 00:46:46;;;;;;;9.32;6.38;;;;;;;15.22;84.69;99863.09;6147867;23;20000;-91
2022/09/04 00:49:21;;;;;;;6.93;5.30;;;;;;;15.11;84.30;99843.41;6190490;23;19996;-91
2022/09/04 00:51:56;;;;;;;12.07;5.25;;;;;;;15.12;84.44;99878.38;6166121;23;20008;-91
2022/09/04 00:54:37;;;;;;;12.63;6.07;;;;;;;15.07;84.46;99881.16;6216584;23;20007;-91
2022/09/04 00:57:12;;;;;;;9.20;5.90;;;;;;;15.07;84.28;99878.44;6164814;23;20008;-91
2022/09/04 01:00:03;;;;;;;8.07;5.68;;;;;;;14.97;84.41;99866.88;6189892;23;20004;-91
2022/09/04 01:02:38;;;;;;;8.45;6.38;;;;;;;15.15;84.20;99887.88;6166258;23;20107;-92
2022/09/04 01:05:25;;;;;;;9.40;6.15;;;;;;;15.20;84.07;99878.88;6189746;23;20004;-91
2022/09/04 01:08:09;;;;;;;8.55;5.90;;;;;;;15.24;83.70;99860.91;6217479;23;20468;-92
2022/09/04 01:10:39;;;;;;;9.02;5.70;;;;;;;15.32;83.19;99882.00;6166354;23;20428;-91
2022/09/04 01:13:11;;;;;;;8.50;5.85;;;;;;;15.48;83.58;99902.44;6166342;23;20004;-91
2022/09/04 01:15:43;;;;;;;;;;;;;;;15.43;84.18;99896.25;6166006;23;20133;-91
2022/09/04 01:18:19;;;;;;;12.32;6.20;;;;;;;15.30;83.86;99878.75;6190445;23;19926;-92
2022/09/04 01:21:01;;;;;;;6.90;5.50;;;;;;;15.23;83.97;99884.53;6166118;23;20008;-92
2022/09/04 01:23:33;;;;;;;10.63;5.85;;;;;;;15.39;83.98;99903.34;6190440;23;20352;-91
2022/09/04 01:26:20;;;;;;;8.57;5.28;;;;;;;15.39;83.71;99904.16;6216072;23;19996;-91
2022/09/04 01:29:15;;;;;;;10.40;6.50;;;;;;;15.23;83.24;99870.13;6189702;23;20000;-91
2022/09/04 01:32:15;;;;;;;12.45;5.20;;;;;;;15.33;82.92;99875.47;6193278;23;19993;-91
2022/09/04 01:34:48;;;;;;;8.23;6.07;;;;;;;15.33;83.35;99889.81;6179736;23;20027;-92
2022/09/04 01:37:26;;;;;;;8.50;6.03;;;;;;;15.38;83.60;99915.28;6189706;23;20313;-92
2022/09/04 01:40:22;;;;;;;10.02;6.05;;;;;;;15.40;83.33;99911.22;6215989;23;20000;-92
2022/09/04 01:42:51;;;;;;;7.93;5.93;;;;;;;15.16;84.00;99878.63;6124009;23;20062;-91
2022/09/04 01:45:36;;;;;;;10.15;6.18;;;;;;;15.27;84.36;99895.59;6165621;23;19997;-91
2022/09/04 01:48:02;;;;;;;11.30;6.80;;;;;;;15.22;83.72;99877.47;6165700;23;20058;-92
2022/09/04 01:50:31;;;;;;;10.02;6.80;;;;;;;15.27;83.46;99874.72;6164145;23;20332;-92
2022/09/04 01:53:15;;;;;;;10.73;6.50;;;;;;;15.27;83.79;99882.88;6165720;23;20408;-92
2022/09/04 01:55:44;;;;;;;12.38;6.88;;;;;;;15.21;84.72;99889.44;6216678;23;20400;-91
2022/09/04 01:58:16;;;;;;;9.50;5.90;;;;;;;15.09;84.54;99876.25;6189665;23;20005;-92
2022/09/04 02:00:56;;;;;;;;;;;;;;;15.14;84.67;99887.03;6165549;23;20416;-91
2022/09/04 02:03:51;;;;;;;9.30;6.35;;;;;;;15.05;84.45;99888.75;6190063;23;19907;-92
2022/09/04 02:06:55;;;;;;;9.63;6.95;;;;;;;14.85;84.62;99886.22;6164911;23;20012;-91
2022/09/04 02:09:57;;;;;;;13.75;6.07;;;;;;;14.90;84.65;99891.59;6193188;23;20028;-91
2022/09/04 02:13:01;;;;;;;10.82;6.13;;;;;;;14.86;84.19;99869.69;6189596;23;20021;-91
2022/09/04 02:15:35;;;;;;;8.85;6.28;;;;;;;14.89;84.27;99879.13;6108312;23;20087;-91
2022/09/04 02:18:01;;;;;;;11.85;6.50;;;;;;;14.79;85.00;99876.50;6165930;23;19997;-92
2022/09/04 02:20:28;;;;;;;11.90;7.15;;;;;;;14.72;85.48;99874.13;6189575;23;20343;-92
2022/09/04 02:23:04;;;;;;;11.07;6.53;;;;;;;14.72;85.43;99883.06;6164799;23;20344;-91
2022/09/04 02:25:33;;;;;;;10.40;7.18;;;;;;;14.72;85.55;99879.56;6165946;23;20008;-91
2022/09/04 02:28:08;;;;;;;9.23;6.43;;;;;;;14.84;85.21;99890.84;6165022;23;20031;-92
2022/09/04 02:30:40;;;;;;;14.90;6.78;;;;;;;14.74;84.72;99867.34;6189134;23;20001;-91
2022/09/04 02:33:31;;;;;;;11.00;6.65;;;;;;;14.78;84.95;99874.91;6165242;23;20394;-92
2022/09/04 02:36:14;;;;;;;9.43;5.72;;;;;;;14.82;85.10;99884.09;6182890;23;20347;-92
2022/09/04 02:38:59;;;;;;;8.43;5.68;;;;;;;14.85;85.02;99895.16;6165589;23;20035;-91
2022/09/04 02:41:34;;;;;;;12.77;6.30;;;;;;;14.77;84.88;99881.41;6189535;23;20017;-91
2022/09/04 02:44:20;;;;;;;10.98;6.88;;;;;;;14.79;85.28;99890.06;6166681;23;19996;-90
2022/09/04 02:47:11;;;;;;;13.30;7.25;;;;;;;14.68;84.94;99863.03;6215576;23;20321;-91
2022/09/04 02:49:58;;;;;;;10.13;7.35;;;;;;;14.69;84.98;99853.84;6191523;23;20059;-91
2022/09/04 02:52:32;;;;;;;11.98;7.60;;;;;;;14.81;84.75;99877.84;6164928;23;20020;-91
2022/09/04 02:55:09;;;;;;;9.25;6.75;;;;;;;14.84;84.91;99887.34;6215856;23;20001;-92
2022/09/04 02:58:00;;;;;;;10.73;6.70;;;;;;;14.75;84.85;99879.81;6188670;23;20015;-91
2022/09/04 03:00:54;;;;;;;10.82;7.05;;;;;;;14.65;85.05;99866.34;6165274;23;20108;-91
2022/09/04 03:03:41;;;;;;;9.25;7.15;;;;;;;14.75;85.16;99879.81;6165248;23;20040;-91
2022/09/04 03:06:58;;;;;;;10.35;7.22;;;;;;;14.70;85.38;99871.69;6164180;23;20009;-91
2022/09/04 03:09:30;;;;;;;11.70;7.07;;;;;;;14.60;85.47;99858.22;6158180;23;20076;-91
2022/09/04 03:12:33;;;;;;;9.00;7.00;;;;;;;14.69;85.57;99880.09;6164421;23;20027;-93
2022/09/04 03:15:07;;;;;;;9.63;6.82;;;;;;;14.73;85.18;99881.16;6188894;23;20063;-90
2022/09/04 03:17:52;;;;;;;10.85;6.55;;;;;;;14.61;85.35;99870.69;6189484;23;20000;-91
2022/09/04 03:20:26;;;;;;;14.15;7.68;;;;;;;14.53;85.56;99866.66;6164847;23;20419;-92
2022/09/04 03:23:12;;;;;;;10.63;7.68;;;;;;;14.61;85.22;99891.56;6166780;23;20012;-91
2022/09/04 03:25:52;;;;;;;10.70;7.93;;;;;;;14.52;85.60;99875.88;6166123;23;20000;-91
2022/09/04 03:28:30;;;;;;;12.55;8.45;;;;;;;14.52;86.15;99886.69;6190947;23;20004;-92
2022/09/04 03:30:56;;;;;;;10.75;7.55;;;;;;;14.46;85.44;99876.19;6217120;23;20031;-91
2022/09/04 03:33:37;;;;;;;9.82;7.00;;;;;;;14.42;85.90;99881.38;6165969;23;20068;-90
2022/09/04 03:36:09;;;;;;;14.10;6.93;;;;;;;14.41;85.90;99879.75;6165975;23;20005;-91
2022/09/04 03:39:06;;;;;;;11.90;7.25;;;;;;;14.56;85.17;99876.16;6166094;23;20011;-92
2022/09/04 03:41:57;;;;;;;8.65;6.70;;;;;;;14.66;84.83;99875.28;6165066;23;20071;-91
2022/09/04 03:44:51;;;;;;;9.90;6.70;;;;;;;14.78;84.26;99873.00;6165178;23;20088;-90
2022/09/04 03:47:46;;;;;;;12.73;6.80;;;;;;;14.71;84.25;99881.47;6176350;23;20033;-91
2022/09/04 03:50:29;;;;;;;11.32;6.93;;;;;;;14.75;84.51;99878.97;6189841;23;20035;-91
2022/09/04 03:53:36;;;;;;;9.85;6.70;;;;;;;14.75;84.70;99885.22;6190305;23;19997;-91
2022/09/04 03:56:05;;;;;;;10.60;6.25;;;;;;;14.68;84.42;99865.75;6132741;23;20005;-91
2022/09/04 03:58:40;;;;;;;11.15;6.72;;;;;;;14.71;84.33;99873.34;6190373;23;20008;-91
2022/09/04 04:01:13;;;;;;;10.25;6.30;;;;;;;14.67;84.45;99872.28;6189797;23;20023;-91
2022/09/04 04:03:48;;;;;;;11.38;5.88;;;;;;;14.75;84.38;99890.66;6166682;23;20008;-91
2022/09/04 04:06:37;;;;;;;9.13;5.70;;;;;;;14.69;84.13;99877.41;6190168;23;20004;-91
2022/09/04 04:09:50;;;;;;;8.52;6.28;;;;;;;14.77;83.94;99886.84;6167276;23;20059;-91
2022/09/04 04:12:26;;;;;;;9.10;6.18;;;;;;;14.75;83.98;99876.25;6120565;23;20055;-91
2022/09/04 04:15:28;;;;;;;8.98;6.28;;;;;;;14.89;83.95;99895.41;6160146;23;20016;-91
2022/09/04 04:18:12;;;;;;;7.88;5.97;;;;;;;14.72;83.98;99869.53;6159817;23;19998;-92
2022/09/04 04:20:55;;;;;;;8.52;6.07;;;;;;;14.95;84.19;99894.28;6137071;23;20005;-91
2022/09/04 04:23:58;;;;;;;15.60;7.15;;;;;;;14.94;83.71;99888.06;6186351;23;20055;-91
2022/09/04 04:26:52;;;;;;;13.23;7.45;;;;;;;15.04;83.66;99903.41;6139026;23;20083;-92
2022/09/04 04:29:43;;;;;;;11.55;6.85;;;;;;;15.09;83.84;99906.09;6159490;23;20005;-92
2022/09/04 04:32:29;;;;;;;11.50;6.30;;;;;;;15.13;83.83;99907.13;6160005;23;20051;-91
2022/09/04 04:35:07;;;;;;;12.52;7.20;;;;;;;15.13;84.04;99917.97;6160219;23;20058;-90
2022/09/04 04:37:39;;;;;;;11.07;6.50;;;;;;;15.15;83.42;99915.00;6159525;23;20005;-90
2022/09/04 04:40:23;;;;;;;11.40;7.07;;;;;;;15.03;83.61;99890.16;6160064;23;20084;-91
2022/09/04 04:42:54;;;;;;;9.88;7.07;;;;;;;15.03;83.73;99899.09;6138514;23;20496;-91
2022/09/04 04:45:49;;;;;;;9.68;6.80;;;;;;;15.11;83.59;99920.16;6136546;23;20055;-90
2022/09/04 04:48:28;;;;;;;9.35;6.22;;;;;;;15.10;82.90;99907.69;6161948;23;20484;-91
2022/09/04 04:51:25;;;;;;;10.45;5.90;;;;;;;15.42;82.31;99935.34;6137688;23;20092;-91
2022/09/04 04:54:12;;;;;;;10.93;5.97;;;;;;;15.49;81.83;99942.06;6187030;23;20325;-90
2022/09/04 04:56:44;;;;;;;9.68;5.90;;;;;;;15.20;81.23;99911.41;6160485;23;20028;-90
2022/09/04 04:59:34;;;;;;;9.32;5.28;;;;;;;15.45;82.21;99945.63;6137895;23;20023;-90
2022/09/04 05:02:20;;;;;;;12.60;6.15;;;;;;;15.53;81.94;99953.16;6160016;23;20012;-91
2022/09/04 05:05:12;;;;;;;7.47;5.35;;;;;;;15.36;81.66;99940.03;6159742;23;20097;-90
2022/09/04 05:07:37;;;;;;;;;;;;;;;15.40;82.51;99960.06;6138308;23;20079;-90
2022/09/04 05:10:16;;;;;;;7.80;5.80;;;;;;;15.30;82.46;99938.44;6185788;23;20260;-90
2022/09/04 05:12:49;;;;;;;9.20;5.88;;;;;;;15.38;82.17;99948.69;6162076;23;20012;-92
2022/09/04 05:15:27;;;;;;;9.25;6.30;;;;;;;15.51;81.71;99961.56;6163318;23;20356;-91
2022/09/04 05:18:00;;;;;;;7.68;5.50;;;;;;;15.39;81.72;99941.34;6164077;23;20000;-91
2022/09/04 05:21:05;;;;;;;7.90;5.32;;;;;;;15.69;81.53;99970.91;6164820;23;20459;-92
2022/09/04 05:23:35;;;;;;;9.05;6.25;;;;;;;15.62;81.58;99959.56;6168447;23;20016;-91
2022/09/04 05:26:11;;;;;;;7.45;6.00;;;;;;;15.60;81.19;99936.50;6165433;23;20000;-92
2022/09/04 05:28:42;;;;;;;14.95;6.05;;;;;;;15.82;80.89;99976.78;6163926;23;19996;-92
2022/09/04 05:31:28;;;;;;;8.45;6.03;;;;;;;15.80;81.08;99979.78;6189097;23;20054;-92
2022/09/04 05:34:32;;;;;;;8.60;5.82;;;;;;;15.74;80.67;99976.28;6164757;23;20000;-91
2022/09/04 05:37:22;;;;;;;9.48;5.68;;;;;;;15.73;80.83;99976.59;6165084;23;19996;-91
2022/09/04 05:40:12;;;;;;;8.40;5.95;;;;;;;15.68;80.23;99974.69;6188754;23;20023;-90
2022/09/04 05:43:07;;;;;;;7.95;5.47;;;;;;;15.91;80.14;99983.97;6166069;23;20055;-90
2022/09/04 05:45:53;;;;;;;10.32;6.15;;;;;;;15.96;79.68;99985.84;6193800;23;20145;-91
2022/09/04 05:48:24;;;;;;;11.30;5.40;;;;;;;16.01;79.97;100012.13;6164912;23;20062;-91
2022/09/04 05:51:25;;;;;;;12.30;5.72;;;;;;;15.96;79.84;100010.28;6163228;23;20427;-91
2022/09/04 05:54:20;;;;;;;8.05;5.13;;;;;;;16.03;79.43;100016.19;6162507;23;20007;-91
2022/09/04 05:57:26;;;;;;;9.23;5.65;;;;;;;16.03;79.25;100007.22;6162685;23;20502;-90
2022/09/04 05:59:58;;;;;;;10.20;5.82;;;;;;;16.05;78.88;99989.53;6187053;23;20355;-91
2022/09/04 06:02:41;;;;;;;9.25;5.40;;;;;;;16.13;79.25;100016.06;6213815;23;20026;-91
2022/09/04 06:05:28;;;;;;;9.43;5.82;;;;;;;15.96;79.11;100002.16;6214172;23;20008;-91
2022/09/04 06:07:59;;;;;;;7.88;5.32;;;;;;;16.01;79.14;100012.94;6162618;23;20031;-91
2022/09/04 06:13:46;;;;;;;8.40;5.38;;;;;;;15.98;78.76;100023.56;5081724;27;1378028;-93
2022/09/04 06:16:20;;;;;;;8.73;5.72;;;;;;;15.72;79.74;100018.41;5060658;28;20505;-93
2022/09/04 06:19:17;;;;;;;8.55;6.13;;;;;;;16.00;79.67;100030.34;5092077;28;20059;-93
2022/09/04 06:21:46;;;;;;;9.55;5.80;;;;;;;16.06;79.61;100021.03;5074960;28;20031;-93
2022/09/04 06:24:35;;;;;;;10.32;5.63;;;;;;;16.21;79.29;100025.50;5092259;28;20023;-93
2022/09/04 06:27:22;;;;;;;6.47;4.68;;;;;;;16.23;78.12;100011.59;5097567;28;20031;-92
2022/09/04 06:29:51;;;;;;;6.35;4.65;;;;;;;16.24;77.43;100013.22;5092094;28;20130;-92
2022/09/04 06:32:42;;;;;;;8.90;5.18;;;;;;;16.30;77.29;100015.59;5091911;28;20035;-93
2022/09/04 06:35:36;;;;;;;8.40;5.22;;;;;;;16.35;77.45;100015.53;5091735;28;20019;-93
2022/09/04 06:38:11;;;;;;;7.72;5.38;;;;;;;16.34;77.54;100018.53;5055443;28;20032;-93
2022/09/04 06:40:45;;;;;;;8.98;5.10;;;;;;;16.36;77.49;100006.28;5091652;28;20070;-93
2022/09/04 06:43:11;;;;;;;7.85;5.25;;;;;;;16.58;77.03;100018.50;5076014;28;20023;-94
2022/09/04 06:45:45;;;;;;;6.43;5.00;;;;;;;16.66;75.93;100020.53;5091558;28;20028;-92
2022/09/04 06:48:27;;;;;;;5.68;4.38;;;;;;;16.62;75.21;99997.78;5092090;28;20119;-94
2022/09/04 06:51:17;;;;;;;6.32;3.80;;;;;;;16.84;74.74;100015.47;5075340;28;20020;-93
2022/09/04 06:53:59;;;;;;;4.60;3.25;;;;;;;17.01;74.37;100029.34;5071496;28;20067;-94
2022/09/04 06:56:27;;;;;;;;;;;;;;;17.08;74.04;100037.13;5075719;28;20046;-95
2022/09/04 06:59:00;;;;;;;7.82;3.60;;;;;;;17.29;73.28;100034.91;5091151;28;20003;-93
2022/09/04 07:01:52;;;;;;;6.35;3.50;;;;;;;17.55;72.11;100040.72;5074895;28;20474;-92
2022/09/04 07:04:27;;;;;;;5.80;3.45;;;;;;;17.74;71.75;100036.06;5110462;28;20113;-92
2022/09/04 07:07:02;;;;;;;5.53;3.30;;;;;;;17.72;71.29;100021.09;5092800;28;20028;-93
2022/09/04 07:09:56;;;;;;;5.15;3.72;;;;;;;17.58;71.26;100021.88;5058580;28;20034;-93
2022/09/04 07:12:49;;;;;;;4.63;3.20;;;;;;;17.81;71.92;100029.41;5075077;28;20054;-92
2022/09/04 07:15:51;;;;;;;5.22;3.50;;;;;;;17.86;71.81;100023.88;5091955;28;20028;-93
2022/09/04 07:18:37;;;;;;;;;;;;;;;17.96;70.77;100023.69;5094156;28;20093;-93
2022/09/04 07:21:24;;;;;;;4.22;3.20;;;;;;;17.89;70.86;100010.47;5095476;28;19953;-93
2022/09/04 07:24:29;;;;;;;5.53;3.40;;;;;;;17.96;70.40;99999.16;5082540;28;20082;-93
2022/09/04 07:27:19;;;;;;;6.85;3.10;;;;;;;18.13;69.70;99987.66;5029392;28;20036;-93
2022/09/04 07:29:53;;;;;;;4.82;3.17;;;;;;;18.07;70.12;100008.75;5052252;28;20486;-92
2022/09/04 07:32:20;;;;;;;3.67;2.92;;;;;;;18.06;69.53;99996.25;5078666;28;20077;-92
2022/09/04 07:34:51;;;;;;;6.45;3.13;;;;;;;18.06;70.23;99993.50;5057448;28;20112;-92
2022/09/04 07:37:46;;;;;;;3.70;2.80;;;;;;;18.19;70.12;100016.41;5041067;28;20035;-93
2022/09/04 07:40:19;;;;;;;4.57;2.70;;;;;;;18.31;68.84;100014.00;5057116;28;20085;-93
2022/09/04 07:43:06;;;;;;;3.38;2.67;;;;;;;18.66;68.14;100010.81;5058012;28;20029;-93
2022/09/04 07:45:38;;;;;;;3.13;2.58;;;;;;;18.64;67.17;100002.94;5090161;28;20035;-93
2022/09/04 07:48:56;;;;;;;3.42;2.53;;;;;;;18.86;67.13;100009.56;5060659;28;20147;-93
2022/09/04 07:51:25;;;;;;;3.05;2.20;;;;;;;18.90;66.31;99978.63;5028381;28;20036;-93
2022/09/04 07:54:06;;;;;;;2.30;1.90;;;;;;;19.07;65.81;99999.81;5044995;28;20031;-92
2022/09/04 07:57:03;;;;;;;3.42;2.53;;;;;;;19.30;65.60;99999.78;5078088;28;20032;-93
2022/09/04 08:00:08;;;;;;;5.78;2.25;;;;;;;19.43;64.58;99996.19;5060098;28;20119;-93
2022/09/04 08:02:55;;;;;;;2.65;2.13;;;;;;;19.35;64.69;99986.81;5060579;28;20455;-92
2022/09/04 08:05:35;;;;;;;2.03;1.60;;;;;;;19.26;64.00;99987.84;5077892;28;20066;-93
2022/09/04 08:08:52;;;;;;;2.92;1.85;;;;;;;19.24;63.74;99988.19;5060892;28;20020;-94
2022/09/04 08:11:20;;;;;;;3.15;2.17;;;;;;;19.35;64.16;99995.00;4981181;28;20042;-93
2022/09/04 08:14:05;;;;;;;2.40;2.08;;;;;;;19.43;64.03;100000.84;5070800;28;20048;-94
2022/09/04 08:16:58;;;;;;;3.05;2.28;;;;;;;19.48;63.97;100000.69;5077040;28;20040;-93
2022/09/04 08:19:46;;;;;;;3.92;2.10;;;;;;;19.48;63.21;99990.56;5095455;28;20043;-93
2022/09/04 08:22:12;;;;;;;3.75;2.35;;;;;;;19.51;63.42;99980.97;5061013;28;20024;-93
2022/09/04 08:25:00;;;;;;;2.22;1.83;;;;;;;19.44;63.25;99975.94;5039695;28;20403;-92
2022/09/04 08:28:05;;;;;;;2.55;1.75;;;;;;;19.62;63.69;100001.41;5042420;28;20029;-93
2022/09/04 08:30:41;;;;;;;2.30;1.65;;;;;;;19.56;63.48;99975.34;5056464;28;20024;-93
2022/09/04 08:33:27;;;;;;;2.92;2.20;;;;;;;19.70;63.38;99984.28;5045640;28;20021;-96
2022/09/04 08:35:52;;;;;;;3.17;1.80;;;;;;;19.72;63.51;99993.00;5064887;28;20033;-96
2022/09/04 08:38:31;;;;;;;2.83;1.75;;;;;;;19.77;63.29;99995.56;5066901;28;20607;-96
2022/09/04 08:41:31;;;;;;;3.67;2.22;;;;;;;19.78;63.95;100001.88;5049872;28;20031;-96
2022/09/04 08:44:34;;;;;;;3.50;2.33;;;;;;;19.70;63.04;100003.44;5063587;28;20111;-93
2022/09/04 08:47:02;;;;;;;3.22;2.15;;;;;;;19.76;62.98;100004.91;5074788;28;20029;-93
2022/09/04 08:49:47;;;;;;;3.10;2.40;;;;;;;19.82;62.33;100002.84;5074427;28;20056;-93
2022/09/04 08:52:30;;;;;;;3.70;2.42;;;;;;;19.67;62.23;100001.31;5074108;28;20517;-93
2022/09/04 08:55:26;;;;;;;4.40;2.85;;;;;;;19.69;62.52;100006.44;5039573;28;20036;-92
2022/09/04 08:58:12;;;;;;;3.53;2.55;;;;;;;19.83;62.48;100012.63;5074420;28;20028;-93
2022/09/04 09:01:07;;;;;;;3.67;2.70;;;;;;;19.54;62.20;99988.53;5071641;28;20028;-94
2022/09/04 09:03:51;;;;;;;3.38;2.33;;;;;;;19.51;61.66;100014.53;5078412;28;20024;-93
2022/09/04 09:06:41;;;;;;;3.15;2.33;;;;;;;19.53;61.17;100020.50;5075958;28;20040;-93
2022/09/04 09:10:03;;;;;;;4.85;2.60;;;;;;;19.45;61.92;100021.25;5075871;28;20489;-94
2022/09/04 09:12:55;;;;;;;4.28;2.53;;;;;;;19.51;61.61;100033.66;5015031;28;20050;-92
2022/09/04 09:15:38;;;;;;;;;;;;;;;19.58;61.83;100036.75;5059571;28;20412;-93
2022/09/04 09:18:10;;;;;;;4.50;2.35;;;;;;;19.65;61.43;100033.59;5093712;28;19908;-93
2022/09/04 09:20:57;;;;;;;2.45;1.80;;;;;;;19.88;60.80;100036.28;5074930;28;20535;-93
2022/09/04 09:23:50;;;;;;;2.88;2.22;;;;;;;19.76;61.25;100043.16;5075313;28;20035;-92
2022/09/04 09:26:29;;;;;;;4.00;2.28;;;;;;;19.81;61.16;100042.22;5054987;28;20036;-93
2022/09/04 09:29:15;;;;;;;3.40;2.47;;;;;;;19.92;60.81;100046.31;5023310;28;20024;-92
2022/09/04 09:32:18;;;;;;;2.38;1.95;;;;;;;19.92;60.88;100049.03;5054467;28;20029;-94
2022/09/04 09:34:59;;;;;;;2.60;1.83;;;;;;;19.89;60.10;100048.84;5055522;28;20029;-92
2022/09/04 09:37:46;;;;;;;2.75;2.00;;;;;;;19.86;59.78;100053.03;5072487;28;20103;-93
2022/09/04 09:40:50;;;;;;;5.55;3.53;;;;;;;19.99;59.63;100041.16;5064202;28;20036;-93
2022/09/04 09:43:38;;;;;;;3.35;1.80;;;;;;;20.12;59.33;100049.59;5071481;28;20028;-93
2022/09/04 09:47:01;;;;;;;3.58;2.60;;;;;;;20.08;59.61;100048.59;5075044;28;20028;-93
2022/09/04 09:49:35;;;;;;;4.57;2.60;;;;;;;20.24;58.86;100043.53;4976239;28;20092;-93
2022/09/04 09:52:22;;;;;;;2.53;1.90;;;;;;;20.13;58.73;100038.34;4975878;28;20034;-92
2022/09/04 09:55:22;;;;;;;3.65;2.10;;;;;;;20.42;58.34;100041.63;5072776;28;20040;-94
2022/09/04 09:57:50;;;;;;;3.08;2.00;;;;;;;20.32;58.83;100029.88;5093453;28;20148;-94
2022/09/04 10:00:21;;;;;;;3.03;1.98;;;;;;;20.35;58.32;100034.69;5075462;28;20038;-94
2022/09/04 10:03:13;;;;;;;4.35;2.47;;;;;;;20.62;58.19;100043.00;5058808;28;20028;-93
2022/09/04 10:05:57;;;;;;;3.90;3.08;;;;;;;20.71;57.99;100041.91;5076042;28;20116;-93
2022/09/04 10:08:42;;;;;;;3.38;2.40;;;;;;;20.86;58.37;100040.63;5075452;28;20110;-93
2022/09/04 10:11:22;;;;;;;2.75;2.05;;;;;;;21.07;56.83;100037.25;5074314;28;20024;-94
2022/09/04 10:13:50;;;;;;;3.22;2.30;;;;;;;20.99;56.69;100042.41;5058576;28;20032;-93
2022/09/04 10:16:41;;;;;;;2.50;1.90;;;;;;;21.02;57.16;100027.25;5055191;28;20036;-93
2022/09/04 10:19:49;;;;;;;3.28;1.98;;;;;;;21.03;56.31;100036.28;5072840;28;20488;-94
2022/09/04 10:22:32;;;;;;;4.65;2.20;;;;;;;20.88;57.42;100049.31;5059047;28;20516;-94
2022/09/04 10:25:22;;;;;;;2.47;1.88;;;;;;;21.08;55.93;100045.13;5049088;28;20095;-93
2022/09/04 10:28:06;;;;;;;2.28;1.73;;;;;;;21.16;56.22;100049.78;5093459;28;20034;-93
2022/09/04 10:31:12;;;;;;;3.70;2.92;;;;;;;21.29;54.72;100050.78;5074844;28;20032;-95
2022/09/04 10:34:22;;;;;;;3.45;1.95;;;;;;;21.34;54.87;100052.53;5075716;28;20486;-93
2022/09/04 10:37:12;;;;;;;4.40;1.80;;;;;;;21.18;55.03;100052.22;4975904;28;20040;-93
2022/09/04 10:42:33;;;;;;;2.33;1.60;;;;;;;21.31;54.91;100053.19;5078340;28;20089;-94
2022/09/04 10:45:18;;;;;;;3.13;1.60;;;;;;;21.16;54.58;100027.88;5092834;28;20024;-92
2022/09/04 10:48:02;;;;;;;2.58;1.70;;;;;;;21.32;54.61;100036.41;5059012;28;20103;-93
2022/09/04 10:50:34;;;;;;;1.70;1.40;;;;;;;21.28;54.08;100031.91;5076016;28;20027;-94
2022/09/04 10:53:13;;;;;;;2.22;1.80;;;;;;;21.18;54.74;100006.47;5076163;28;20028;-93
2022/09/04 10:56:04;;;;;;;4.00;2.00;;;;;;;21.25;54.97;99999.69;5042871;28;20036;-94
2022/09/04 10:58:39;;;;;;;3.63;1.55;;;;;;;21.32;55.03;99994.53;5064416;28;20070;-94
2022/09/04 11:01:23;;;;;;;3.00;1.80;;;;;;;21.44;54.35;99983.75;5048122;28;20057;-93
2022/09/04 11:04:34;;;;;;;2.30;1.40;;;;;;;21.72;53.13;100000.56;5063875;28;20043;-93
2022/09/04 11:07:19;;;;;;;2.70;1.73;;;;;;;21.48;54.55;99981.97;5055138;28;20032;-94
2022/09/04 11:10:20;;;;;;;2.00;1.55;;;;;;;21.67;53.56;99995.28;5059105;28;20050;-94
2022/09/04 11:13:10;;;;;;;3.33;2.17;;;;;;;21.82;53.97;99990.38;4978199;28;20089;-94
2022/09/04 11:15:40;;;;;;;4.57;1.48;;;;;;;21.97;53.48;99984.34;5069246;28;20043;-93
2022/09/04 11:18:08;;;;;;;2.15;1.40;;;;;;;22.15;52.86;100001.53;5058486;28;20036;-93
2022/09/04 11:21:01;;;;;;;1.85;1.30;;;;;;;22.06;52.89;100001.56;5074627;28;20062;-94
2022/09/04 11:23:51;;;;;;;2.45;1.67;;;;;;;22.14;53.53;99999.91;5075808;28;20466;-94
2022/09/04 11:26:26;;;;;;;1.98;1.58;;;;;;;22.24;53.27;99999.56;5075231;28;20542;-95
2022/09/04 11:29:13;;;;;;;2.80;1.48;;;;;;;22.47;51.99;100002.81;5074902;28;20033;-94
2022/09/04 11:32:19;;;;;;;3.25;1.42;;;;;;;22.28;52.50;99992.28;5040339;28;20013;-94
2022/09/04 11:35:07;;;;;;;2.60;1.20;;;;;;;22.53;51.81;99984.22;5020624;28;20029;-94
2022/09/04 11:38:11;;;;;;;2.40;1.63;;;;;;;22.73;51.21;99983.41;5050484;28;20024;-94
2022/09/04 11:41:03;;;;;;;3.47;1.30;;;;;;;22.73;50.67;99974.38;4996628;28;20148;-94
2022/09/04 11:44:02;;;;;;;1.25;1.00;;;;;;;22.68;50.80;99983.63;4997103;28;20381;-93
2022/09/04 11:47:02;;;;;;;1.52;1.20;;;;;;;22.54;50.42;99992.13;4996952;28;20030;-94
2022/09/04 11:49:38;;;;;;;3.05;1.27;;;;;;;22.40;50.87;99986.06;5046226;28;20035;-94
2022/09/04 11:52:14;;;;;;;2.85;1.40;;;;;;;22.29;51.64;99982.94;5077621;28;20474;-93
2022/09/04 11:54:59;;;;;;;3.92;1.30;;;;;;;22.54;50.33;99989.38;5060833;28;20020;-93
2022/09/04 11:57:28;;;;;;;2.20;1.50;;;;;;;22.55;50.51;99962.72;5076774;28;20387;-93
2022/09/04 12:00:11;;;;;;;1.95;1.38;;;;;;;22.50;50.76;99962.94;5076814;28;20031;-96
2022/09/04 12:03:02;;;;;;;1.90;1.30;;;;;;;22.69;50.75;99978.94;5044992;28;20035;-93
2022/09/04 12:05:52;;;;;;;1.95;1.10;;;;;;;22.78;50.44;99982.41;5060234;28;20401;-91
2022/09/04 12:08:39;;;;;;;2.38;1.60;;;;;;;22.84;50.23;99972.03;5076552;28;20032;-94
2022/09/04 12:11:37;;;;;;;1.77;1.40;;;;;;;22.96;49.23;99983.88;5094388;28;20539;-93
2022/09/04 12:14:21;;;;;;;3.60;1.52;;;;;;;23.07;49.94;99975.25;5077728;28;20114;-95
2022/09/04 12:16:55;;;;;;;1.60;1.20;;;;;;;23.04;50.33;99971.22;5077193;28;20035;-94
2022/09/04 12:19:29;;;;;;;2.03;1.58;;;;;;;23.22;50.72;99973.81;5058952;28;20053;-94
2022/09/04 12:22:22;;;;;;;1.95;1.73;;;;;;;23.21;50.41;99975.75;5076238;28;20035;-94
2022/09/04 12:25:18;;;;;;;2.17;1.67;;;;;;;23.34;49.59;99960.91;5059493;28;20034;-93
2022/09/04 12:28:05;;;;;;;2.47;1.70;;;;;;;23.15;50.72;99977.09;5076500;28;20482;-93
2022/09/04 12:30:49;;;;;;;2.30;1.60;;;;;;;23.33;50.13;99973.03;5076175;28;20032;-96
2022/09/04 12:33:28;;;;;;;2.38;1.73;;;;;;;23.00;50.20;99960.06;5075708;28;20436;-93
2022/09/04 12:36:17;;;;;;;2.17;1.77;;;;;;;22.98;50.19;99956.06;5043301;28;20036;-93
2022/09/04 12:39:02;;;;;;;4.55;1.70;;;;;;;22.86;50.93;99967.81;5059566;28;20112;-94
2022/09/04 12:41:37;;;;;;;2.50;1.85;;;;;;;22.82;50.53;99958.63;5076597;28;20035;-94
2022/09/04 12:44:14;;;;;;;2.97;1.98;;;;;;;22.57;51.63;99952.22;5075842;28;20028;-93
2022/09/04 12:46:49;;;;;;;3.05;1.60;;;;;;;22.67;51.42;99956.50;5076118;28;20082;-95
2022/09/04 12:49:33;;;;;;;2.20;1.77;;;;;;;22.62;52.33;99957.53;5071553;28;20028;-93
2022/09/04 12:52:18;;;;;;;4.47;2.00;;;;;;;22.42;51.59;99972.03;5055307;28;20024;-94
2022/09/04 12:55:01;;;;;;;2.78;1.90;;;;;;;22.42;52.94;99958.31;5055313;28;20403;-93